createdAt,value
2023-01-19T00:01:39.071Z,100055.69
2023-01-19T00:04:07.109Z,100064.38
2023-01-19T00:06:34.946Z,100050.53
2023-01-19T00:09:02.775Z,100059.03
2023-01-19T00:11:30.689Z,100056.25
2023-01-19T00:13:59.243Z,100037.94
2023-01-19T00:16:27.229Z,100029.91
2023-01-19T00:18:55.960Z,100031.81
2023-01-19T00:21:23.884Z,100026.00
2023-01-19T00:23:53.001Z,100020.28
2023-01-19T00:26:22.621Z,100020.06
2023-01-19T00:28:50.722Z,100001.56
2023-01-19T00:31:20.911Z,100000.94
2023-01-19T00:33:49.707Z,99991.56
2023-01-19T00:36:17.621Z,99982.03
2023-01-19T00:38:45.429Z,99980.94
2023-01-19T00:41:13.368Z,99974.19
2023-01-19T00:43:41.420Z,99970.75
2023-01-19T00:46:09.453Z,99962.72
2023-01-19T00:48:37.374Z,99958.19
2023-01-19T00:51:05.375Z,99957.94
2023-01-19T00:53:33.193Z,99949.00
2023-01-19T00:56:01.002Z,99945.25
2023-01-19T00:58:28.776Z,99939.06
2023-01-19T01:01:04.036Z,99937.25
2023-01-19T01:03:32.569Z,99938.78
2023-01-19T01:06:00.449Z,99931.00
2023-01-19T01:08:28.300Z,99930.75
2023-01-19T01:10:56.368Z,99928.03
2023-01-19T01:13:26.335Z,99925.53
2023-01-19T01:15:55.789Z,99932.38
2023-01-19T01:18:23.845Z,99937.59
2023-01-19T01:20:51.657Z,99932.38
2023-01-19T01:23:23.298Z,99923.78
2023-01-19T01:25:51.200Z,99909.94
2023-01-19T01:28:19.117Z,99916.31
2023-01-19T01:30:46.933Z,99906.91
2023-01-19T01:33:14.727Z,99905.44
2023-01-19T01:35:42.555Z,99885.03
2023-01-19T01:38:10.496Z,99891.78
2023-01-19T01:40:41.423Z,99894.50
2023-01-19T01:43:16.511Z,99891.09
2023-01-19T01:45:44.683Z,99880.06
2023-01-19T01:48:14.154Z,99876.78
2023-01-19T01:51:08.461Z,99883.91
2023-01-19T01:53:36.387Z,99892.72
2023-01-19T01:56:06.485Z,99882.34
2023-01-19T01:58:35.269Z,99885.91
2023-01-19T02:01:21.597Z,99882.41
2023-01-19T02:03:49.664Z,99877.38
2023-01-19T02:06:17.708Z,99868.97
2023-01-19T02:09:13.951Z,99873.63
2023-01-19T02:12:00.035Z,99870.28
2023-01-19T02:14:28.191Z,99877.81
2023-01-19T02:16:56.035Z,99873.63
2023-01-19T02:19:31.581Z,99874.75
2023-01-19T02:22:13.319Z,99873.28
2023-01-19T02:24:41.328Z,99848.41
2023-01-19T02:27:09.419Z,99861.94
2023-01-19T02:29:37.112Z,99851.94
2023-01-19T02:32:06.214Z,99840.19
2023-01-19T02:34:34.117Z,99841.34
2023-01-19T02:37:13.277Z,99831.84
2023-01-19T02:39:51.160Z,99821.78
2023-01-19T02:42:23.654Z,99819.34
2023-01-19T02:44:51.564Z,99810.31
2023-01-19T02:47:20.173Z,99795.16
2023-01-19T02:50:01.000Z,99796.91
2023-01-19T02:52:28.816Z,99804.00
2023-01-19T02:55:02.481Z,99810.09
2023-01-19T02:57:33.514Z,99816.19
2023-01-19T03:00:23.163Z,99818.00
2023-01-19T03:02:53.798Z,99811.09
2023-01-19T03:05:38.734Z,99811.78
2023-01-19T03:08:22.520Z,99811.50
2023-01-19T03:11:02.962Z,99798.81
2023-01-19T03:13:55.736Z,99796.41
2023-01-19T03:16:37.248Z,99792.34
2023-01-19T03:19:08.980Z,99786.66
2023-01-19T03:21:37.721Z,99774.22
2023-01-19T03:24:07.037Z,99770.63
2023-01-19T03:26:38.305Z,99762.34
2023-01-19T03:29:07.381Z,99754.66
2023-01-19T03:31:35.131Z,99762.28
2023-01-19T03:34:06.133Z,99760.84
2023-01-19T03:37:05.240Z,99749.63
2023-01-19T03:39:33.096Z,99738.09
2023-01-19T03:42:03.599Z,99730.06
2023-01-19T03:44:31.919Z,99730.16
2023-01-19T03:46:59.817Z,99727.00
2023-01-19T03:49:27.882Z,99730.09
2023-01-19T03:51:59.399Z,99722.22
2023-01-19T03:54:27.539Z,99713.25
2023-01-19T03:56:55.480Z,99709.78
2023-01-19T03:59:23.426Z,99697.63
2023-01-19T04:01:51.165Z,99703.91
2023-01-19T04:04:19.270Z,99701.00
2023-01-19T04:06:47.205Z,99707.41
2023-01-19T04:09:15.093Z,99683.19
2023-01-19T04:11:42.998Z,99680.66
2023-01-19T04:14:11.143Z,99678.56
2023-01-19T04:16:38.975Z,99652.81
2023-01-19T04:19:06.821Z,99659.16
2023-01-19T04:21:34.663Z,99647.94
2023-01-19T04:24:02.627Z,99636.19
2023-01-19T04:26:30.557Z,99640.16
2023-01-19T04:28:58.939Z,99643.59
2023-01-19T04:31:26.796Z,99629.22
2023-01-19T04:33:54.885Z,99632.41
2023-01-19T04:36:22.747Z,99631.06
2023-01-19T04:38:50.880Z,99622.84
2023-01-19T04:41:19.046Z,99608.19
2023-01-19T04:43:48.095Z,99607.00
2023-01-19T04:46:16.072Z,99596.28
2023-01-19T04:48:44.021Z,99586.66
2023-01-19T04:51:12.360Z,99580.28
2023-01-19T04:53:40.708Z,99576.94
2023-01-19T04:56:08.506Z,99579.28
2023-01-19T04:58:36.955Z,99565.78
2023-01-19T05:01:09.071Z,99571.56
2023-01-19T05:03:37.224Z,99560.81
2023-01-19T05:06:07.847Z,99569.34
2023-01-19T05:08:35.672Z,99557.75
2023-01-19T05:11:04.071Z,99557.38
2023-01-19T05:13:33.895Z,99550.59
2023-01-19T05:16:02.189Z,99553.66
2023-01-19T05:18:36.404Z,99552.06
2023-01-19T05:21:04.803Z,99543.59
2023-01-19T05:23:33.188Z,99543.41
2023-01-19T05:26:02.334Z,99548.56
2023-01-19T05:28:30.955Z,99535.09
2023-01-19T05:30:59.135Z,99539.16
2023-01-19T05:33:28.135Z,99532.84
2023-01-19T05:35:55.930Z,99533.47
2023-01-19T05:38:34.465Z,99538.75
2023-01-19T05:41:02.939Z,99532.59
2023-01-19T05:43:30.741Z,99523.97
2023-01-19T05:45:58.676Z,99514.66
2023-01-19T05:48:26.551Z,99517.28
2023-01-19T05:50:58.603Z,99518.38
2023-01-19T05:53:26.559Z,99507.72
2023-01-19T05:55:54.742Z,99504.63
2023-01-19T05:58:22.679Z,99499.97
2023-01-19T06:00:50.766Z,99506.75
2023-01-19T06:03:19.125Z,99496.81
2023-01-19T06:05:47.429Z,99508.53
2023-01-19T06:08:18.054Z,99497.53
2023-01-19T06:10:45.926Z,99483.63
2023-01-19T06:13:13.719Z,99492.19
2023-01-19T06:15:43.187Z,99479.75
2023-01-19T06:18:17.339Z,99472.63
2023-01-19T06:20:45.209Z,99482.53
2023-01-19T06:23:13.055Z,99477.44
2023-01-19T06:25:40.903Z,99476.53
2023-01-19T06:28:08.688Z,99475.44
2023-01-19T06:30:36.495Z,99463.59
2023-01-19T06:33:04.254Z,99453.44
2023-01-19T06:35:32.264Z,99451.69
2023-01-19T06:37:59.984Z,99450.50
2023-01-19T06:40:28.126Z,99451.53
2023-01-19T06:42:56.077Z,99440.31
2023-01-19T06:45:23.990Z,99442.84
2023-01-19T06:47:51.974Z,99438.34
2023-01-19T06:50:19.883Z,99441.34
2023-01-19T06:52:51.348Z,99441.63
2023-01-19T06:55:19.358Z,99435.88
2023-01-19T06:57:47.827Z,99438.53
2023-01-19T07:00:16.666Z,99424.81
2023-01-19T07:02:44.658Z,99423.13
2023-01-19T07:05:14.777Z,99418.56
2023-01-19T07:07:43.621Z,99421.34
2023-01-19T07:10:16.780Z,99420.69
2023-01-19T07:12:46.966Z,99409.44
2023-01-19T07:15:19.960Z,99408.41
2023-01-19T07:17:47.920Z,99391.84
2023-01-19T07:20:15.953Z,99378.25
2023-01-19T07:22:46.113Z,99388.00
2023-01-19T07:25:14.531Z,99378.91
2023-01-19T07:27:42.421Z,99374.50
2023-01-19T07:30:10.783Z,99374.97
2023-01-19T07:32:38.817Z,99363.28
2023-01-19T07:35:06.869Z,99350.53
2023-01-19T07:37:34.801Z,99347.44
2023-01-19T07:40:02.636Z,99343.66
2023-01-19T07:42:30.674Z,99334.75
2023-01-19T07:44:58.771Z,99336.06
2023-01-19T07:47:26.483Z,99328.19
2023-01-19T07:49:54.412Z,99324.22
2023-01-19T07:52:23.357Z,99318.34
2023-01-19T07:54:51.473Z,99314.03
2023-01-19T07:57:19.833Z,99319.41
2023-01-19T07:59:47.749Z,99313.56
2023-01-19T08:02:16.444Z,99312.69
2023-01-19T08:04:45.246Z,99305.75
2023-01-19T08:07:13.170Z,99293.66
2023-01-19T08:09:41.317Z,99300.97
2023-01-19T08:12:09.149Z,99295.38
2023-01-19T08:14:37.083Z,99294.16
2023-01-19T08:17:04.982Z,99297.41
2023-01-19T08:19:32.744Z,99298.81
2023-01-19T08:22:00.638Z,99288.69
2023-01-19T08:24:29.527Z,99291.69
2023-01-19T08:27:00.971Z,99279.31
2023-01-19T08:29:31.191Z,99280.81
2023-01-19T08:32:00.530Z,99274.09
2023-01-19T08:34:28.328Z,99278.13
2023-01-19T08:36:56.163Z,99263.72
2023-01-19T08:39:24.985Z,99264.75
2023-01-19T08:41:55.813Z,99249.00
2023-01-19T08:44:23.619Z,99240.66
2023-01-19T08:46:51.595Z,99235.31
2023-01-19T08:49:19.410Z,99226.25
2023-01-19T08:51:49.971Z,99232.59
2023-01-19T08:54:18.720Z,99215.38
2023-01-19T08:56:46.694Z,99226.50
2023-01-19T08:59:14.493Z,99213.50
2023-01-19T09:01:42.605Z,99213.97
2023-01-19T09:04:10.581Z,99205.16
2023-01-19T09:06:38.631Z,99202.25
2023-01-19T09:09:06.377Z,99206.34
2023-01-19T09:11:35.314Z,99204.34
2023-01-19T09:14:03.791Z,99199.88
2023-01-19T09:16:31.675Z,99199.06
2023-01-19T09:18:59.650Z,99197.84
2023-01-19T09:21:27.492Z,99198.78
2023-01-19T09:23:55.505Z,99195.13
2023-01-19T09:26:24.119Z,99204.47
2023-01-19T09:28:51.991Z,99188.19
2023-01-19T09:31:20.042Z,99200.47
2023-01-19T09:33:48.045Z,99192.44
2023-01-19T09:36:15.991Z,99192.50
2023-01-19T09:38:44.046Z,99190.63
2023-01-19T09:41:19.876Z,99176.50
2023-01-19T09:43:57.181Z,99175.72
2023-01-19T09:46:34.825Z,99172.88
2023-01-19T09:49:05.430Z,99164.69
2023-01-19T09:51:36.922Z,99179.44
2023-01-19T09:54:21.200Z,99180.47
2023-01-19T09:56:52.369Z,99179.16
2023-01-19T09:59:30.782Z,99170.19
2023-01-19T10:02:16.191Z,99169.41
2023-01-19T10:04:45.018Z,99164.47
2023-01-19T10:07:17.619Z,99170.34
2023-01-19T10:09:54.359Z,99160.38
2023-01-19T10:12:27.058Z,99165.66
2023-01-19T10:14:58.078Z,99174.03
2023-01-19T10:17:52.289Z,99172.16
2023-01-19T10:20:27.885Z,99175.00
2023-01-19T10:22:55.955Z,99183.22
2023-01-19T10:25:26.895Z,99177.13
2023-01-19T10:27:54.719Z,99186.81
2023-01-19T10:30:24.268Z,99180.53
2023-01-19T10:32:52.340Z,99189.22
2023-01-19T10:35:24.820Z,99187.03
2023-01-19T10:38:02.443Z,99195.63
2023-01-19T10:40:54.070Z,99193.53
2023-01-19T10:43:37.471Z,99208.06
2023-01-19T10:46:34.111Z,99201.00
2023-01-19T10:49:02.050Z,99196.22
2023-01-19T10:51:30.009Z,99190.53
2023-01-19T10:54:02.601Z,99179.53
2023-01-19T10:56:37.023Z,99198.38
2023-01-19T10:59:06.362Z,99193.13
2023-01-19T11:01:37.591Z,99193.13
2023-01-19T11:04:32.133Z,99197.84
2023-01-19T11:07:19.192Z,99187.28
2023-01-19T11:09:48.118Z,99188.88
2023-01-19T11:12:23.557Z,99183.41
2023-01-19T11:14:51.823Z,99181.44
2023-01-19T11:17:26.038Z,99180.03
2023-01-19T11:20:01.447Z,99167.38
2023-01-19T11:22:33.465Z,99163.53
2023-01-19T11:25:02.736Z,99178.06
2023-01-19T11:27:31.767Z,99177.03
2023-01-19T11:30:02.218Z,99178.53
2023-01-19T11:32:30.064Z,99181.81
2023-01-19T11:34:58.437Z,99175.91
2023-01-19T11:37:29.268Z,99158.44
2023-01-19T11:40:03.016Z,99173.50
2023-01-19T11:42:32.227Z,99174.16
2023-01-19T11:45:06.939Z,99171.53
2023-01-19T11:47:52.975Z,99178.09
2023-01-19T11:50:34.523Z,99184.84
2023-01-19T11:53:05.699Z,99177.25
2023-01-19T11:55:44.901Z,99176.28
2023-01-19T11:58:17.023Z,99188.94
2023-01-19T12:00:50.597Z,99180.25
2023-01-19T12:03:42.608Z,99185.84
2023-01-19T12:06:13.086Z,99200.72
2023-01-19T12:09:02.435Z,99197.84
2023-01-19T12:11:36.182Z,99205.75
2023-01-19T12:14:04.057Z,99205.31
2023-01-19T12:16:33.484Z,99205.19
2023-01-19T12:19:11.820Z,99207.69
2023-01-19T12:21:39.956Z,99211.22
2023-01-19T12:24:23.952Z,99197.16
2023-01-19T12:27:17.705Z,99214.53
2023-01-19T12:29:45.980Z,99217.06
2023-01-19T12:32:14.032Z,99222.94
2023-01-19T12:34:52.326Z,99223.69
2023-01-19T12:37:29.458Z,99228.25
2023-01-19T12:40:01.541Z,99232.34
2023-01-19T12:42:29.597Z,99221.53
2023-01-19T12:45:08.426Z,99236.13
2023-01-19T12:47:36.594Z,99250.41
2023-01-19T12:50:19.504Z,99240.38
2023-01-19T12:52:51.812Z,99235.97
2023-01-19T12:55:25.218Z,99242.38
2023-01-19T12:58:19.232Z,99233.19
2023-01-19T13:00:49.076Z,99248.50
2023-01-19T13:03:17.018Z,99263.28
2023-01-19T13:05:44.900Z,99257.59
2023-01-19T13:08:22.412Z,99260.88
2023-01-19T13:11:11.330Z,99263.44
2023-01-19T13:13:40.344Z,99266.69
2023-01-19T13:16:20.571Z,99270.56
2023-01-19T13:18:51.140Z,99268.22
2023-01-19T13:21:44.838Z,99274.50
2023-01-19T13:24:15.389Z,99267.75
2023-01-19T13:26:53.425Z,99274.59
2023-01-19T13:29:31.824Z,99275.88
2023-01-19T13:32:03.608Z,99277.88
2023-01-19T13:34:37.130Z,99279.00
2023-01-19T13:37:06.717Z,99277.31
2023-01-19T13:39:46.675Z,99281.41
2023-01-19T13:42:28.786Z,99288.25
2023-01-19T13:44:59.041Z,99287.22
2023-01-19T13:47:45.714Z,99287.13
2023-01-19T13:50:20.619Z,99277.88
2023-01-19T13:52:49.429Z,99287.63
2023-01-19T13:55:17.484Z,99281.97
2023-01-19T13:57:45.922Z,99286.72
2023-01-19T14:00:16.250Z,99284.94
2023-01-19T14:02:56.292Z,99278.88
2023-01-19T14:05:31.325Z,99282.91
2023-01-19T14:08:14.113Z,99284.91
2023-01-19T14:10:55.095Z,99302.13
2023-01-19T14:13:30.701Z,99295.47
2023-01-19T14:16:00.704Z,99305.38
2023-01-19T14:18:32.796Z,99305.03
2023-01-19T14:21:19.920Z,99299.88
2023-01-19T14:23:49.306Z,99303.78
2023-01-19T14:26:39.705Z,99306.59
2023-01-19T14:29:10.603Z,99308.56
2023-01-19T14:31:49.652Z,99314.75
2023-01-19T14:34:36.077Z,99323.44
2023-01-19T14:37:04.640Z,99316.44
2023-01-19T14:39:34.379Z,99325.78
2023-01-19T14:42:03.618Z,99329.44
2023-01-19T14:44:41.465Z,99331.31
2023-01-19T14:47:27.859Z,99334.88
2023-01-19T14:49:57.257Z,99332.41
2023-01-19T14:52:37.210Z,99327.16
2023-01-19T14:55:09.031Z,99331.94
2023-01-19T14:57:38.267Z,99330.16
2023-01-19T15:00:17.509Z,99334.19
2023-01-19T15:02:46.599Z,99336.25
2023-01-19T15:05:14.963Z,99332.59
2023-01-19T15:07:44.181Z,99341.88
2023-01-19T15:10:22.294Z,99337.13
2023-01-19T15:12:50.969Z,99335.16
2023-01-19T15:15:33.310Z,99339.28
2023-01-19T15:18:02.083Z,99336.94
2023-01-19T15:20:30.113Z,99334.31
2023-01-19T15:22:58.085Z,99349.59
2023-01-19T15:25:28.616Z,99338.25
2023-01-19T15:27:58.488Z,99343.22
2023-01-19T15:30:28.226Z,99336.00
2023-01-19T15:32:56.032Z,99346.31
2023-01-19T15:35:24.359Z,99346.03
2023-01-19T15:37:52.277Z,99342.75
2023-01-19T15:40:20.406Z,99346.56
2023-01-19T15:42:48.418Z,99348.81
2023-01-19T15:45:19.233Z,99355.44
2023-01-19T15:47:48.079Z,99355.81
2023-01-19T15:50:16.224Z,99362.44
2023-01-19T15:52:44.148Z,99373.34
2023-01-19T15:55:12.501Z,99365.66
2023-01-19T15:57:40.334Z,99361.75
2023-01-19T16:00:09.102Z,99362.97
2023-01-19T16:02:39.771Z,99363.06
2023-01-19T16:05:08.443Z,99361.00
2023-01-19T16:07:36.551Z,99365.75
2023-01-19T16:10:06.682Z,99372.97
2023-01-19T16:12:34.498Z,99370.72
2023-01-19T16:15:02.352Z,99366.00
2023-01-19T16:17:30.027Z,99364.59
2023-01-19T16:19:57.895Z,99381.34
2023-01-19T16:22:25.679Z,99384.66
2023-01-19T16:24:53.677Z,99367.63
2023-01-19T16:27:21.560Z,99360.41
2023-01-19T16:29:49.366Z,99360.63
2023-01-19T16:32:17.218Z,99362.53
2023-01-19T16:34:45.129Z,99363.63
2023-01-19T16:37:12.969Z,99366.25
2023-01-19T16:39:40.827Z,99372.84
2023-01-19T16:42:08.687Z,99371.31
2023-01-19T16:44:36.850Z,99365.06
2023-01-19T16:47:04.686Z,99367.50
2023-01-19T16:49:32.663Z,99368.22
2023-01-19T16:52:00.630Z,99368.59
2023-01-19T16:54:28.735Z,99367.47
2023-01-19T16:56:57.147Z,99364.75
2023-01-19T16:59:25.511Z,99367.72
2023-01-19T17:01:53.726Z,99359.75
2023-01-19T17:04:22.152Z,99359.28
2023-01-19T17:06:50.574Z,99359.72
2023-01-19T17:09:18.539Z,99366.19
2023-01-19T17:11:46.523Z,99369.13
2023-01-19T17:14:16.744Z,99368.97
2023-01-19T17:16:44.777Z,99371.09
2023-01-19T17:19:17.499Z,99367.03
2023-01-19T17:21:46.663Z,99377.19
2023-01-19T17:24:14.623Z,99369.50
2023-01-19T17:26:42.845Z,99368.47
2023-01-19T17:29:10.872Z,99364.69
2023-01-19T17:31:38.696Z,99364.31
2023-01-19T17:34:06.684Z,99363.03
2023-01-19T17:36:34.558Z,99355.78
2023-01-19T17:39:09.283Z,99351.09
2023-01-19T17:41:37.227Z,99356.03
2023-01-19T17:44:05.717Z,99356.47
2023-01-19T17:46:36.306Z,99358.81
2023-01-19T17:49:05.270Z,99362.91
2023-01-19T17:51:33.022Z,99355.66
2023-01-19T17:54:00.895Z,99359.03
2023-01-19T17:56:30.561Z,99364.91
2023-01-19T17:58:58.821Z,99355.22
2023-01-19T18:01:28.343Z,99360.22
2023-01-19T18:03:56.397Z,99358.31
2023-01-19T18:06:24.316Z,99359.16
2023-01-19T18:08:52.821Z,99356.41
2023-01-19T18:11:21.048Z,99353.06
2023-01-19T18:13:49.881Z,99357.38
2023-01-19T18:16:20.271Z,99352.94
2023-01-19T18:18:50.027Z,99357.38
2023-01-19T18:21:18.978Z,99359.06
2023-01-19T18:23:46.756Z,99356.41
2023-01-19T18:26:17.218Z,99355.69
2023-01-19T18:28:45.167Z,99343.13
2023-01-19T18:31:14.864Z,99356.75
2023-01-19T18:33:42.683Z,99354.31
2023-01-19T18:36:10.644Z,99348.41
2023-01-19T18:38:38.914Z,99357.97
2023-01-19T18:41:08.653Z,99340.59
2023-01-19T18:43:36.580Z,99350.72
2023-01-19T18:46:04.477Z,99357.88
2023-01-19T18:48:32.417Z,99362.66
2023-01-19T18:51:03.827Z,99362.25
2023-01-19T18:53:32.234Z,99351.78
2023-01-19T18:56:00.674Z,99356.31
2023-01-19T18:58:29.589Z,99345.44
2023-01-19T19:00:57.547Z,99341.03
2023-01-19T19:03:25.716Z,99349.97
2023-01-19T19:05:53.839Z,99340.72
2023-01-19T19:08:21.730Z,99332.25
2023-01-19T19:10:49.548Z,99346.91
2023-01-19T19:13:17.628Z,99353.09
2023-01-19T19:15:45.417Z,99359.41
2023-01-19T19:18:16.656Z,99368.13
2023-01-19T19:20:44.545Z,99360.25
2023-01-19T19:23:12.664Z,99356.94
2023-01-19T19:25:40.586Z,99370.81
2023-01-19T19:28:08.952Z,99363.72
2023-01-19T19:30:39.262Z,99352.84
2023-01-19T19:33:08.196Z,99371.50
2023-01-19T19:35:36.027Z,99381.25
2023-01-19T19:38:04.104Z,99384.91
2023-01-19T19:40:31.896Z,99393.19
2023-01-19T19:42:59.882Z,99394.22
2023-01-19T19:45:27.880Z,99399.69
2023-01-19T19:47:55.912Z,99400.69
2023-01-19T19:50:23.901Z,99401.00
2023-01-19T19:52:51.792Z,99405.59
2023-01-19T19:55:19.637Z,99399.81
2023-01-19T19:57:47.970Z,99397.75
2023-01-19T20:00:16.178Z,99412.66
2023-01-19T20:02:44.876Z,99421.56
2023-01-19T20:05:12.654Z,99418.38
2023-01-19T20:07:46.682Z,99414.25
2023-01-19T20:10:14.865Z,99416.97
2023-01-19T20:12:42.774Z,99420.72
2023-01-19T20:15:11.457Z,99423.72
2023-01-19T20:17:39.198Z,99421.47
2023-01-19T20:20:07.745Z,99426.91
2023-01-19T20:22:35.614Z,99430.47
2023-01-19T20:25:03.371Z,99431.97
2023-01-19T20:27:31.199Z,99429.34
2023-01-19T20:29:59.046Z,99443.59
2023-01-19T20:32:27.164Z,99430.19
2023-01-19T20:34:54.921Z,99446.31
2023-01-19T20:37:22.855Z,99446.88
2023-01-19T20:39:50.928Z,99453.50
2023-01-19T20:42:18.729Z,99443.00
2023-01-19T20:44:46.538Z,99454.75
2023-01-19T20:47:14.478Z,99456.53
2023-01-19T20:49:42.426Z,99458.88
2023-01-19T20:52:10.368Z,99460.75
2023-01-19T20:54:40.163Z,99466.94
2023-01-19T20:57:07.930Z,99469.00
2023-01-19T20:59:37.412Z,99469.47
2023-01-19T21:02:08.443Z,99467.78
2023-01-19T21:04:36.284Z,99469.84
2023-01-19T21:07:04.983Z,99470.69
2023-01-19T21:09:32.718Z,99472.72
2023-01-19T21:12:00.570Z,99471.78
2023-01-19T21:14:28.577Z,99471.78
2023-01-19T21:16:58.918Z,99472.00
2023-01-19T21:19:26.717Z,99475.28
2023-01-19T21:21:55.607Z,99472.66
2023-01-19T21:24:23.668Z,99475.56
2023-01-19T21:26:51.537Z,99488.56
2023-01-19T21:29:19.510Z,99481.28
2023-01-19T21:31:47.387Z,99483.06
2023-01-19T21:34:15.363Z,99487.38
2023-01-19T21:36:45.049Z,99489.16
2023-01-19T21:39:13.071Z,99496.19
2023-01-19T21:41:42.766Z,99490.00
2023-01-19T21:44:14.458Z,99484.84
2023-01-19T21:46:42.490Z,99490.84
2023-01-19T21:49:19.180Z,99486.06
2023-01-19T21:51:48.105Z,99506.69
2023-01-19T21:54:15.858Z,99507.53
2023-01-19T21:56:43.911Z,99505.56
2023-01-19T21:59:15.417Z,99512.59
2023-01-19T22:01:43.831Z,99512.88
2023-01-19T22:04:12.036Z,99514.38
2023-01-19T22:06:40.084Z,99507.63
2023-01-19T22:09:08.259Z,99499.75
2023-01-19T22:11:36.485Z,99514.19
2023-01-19T22:14:04.220Z,99508.38
2023-01-19T22:16:32.164Z,99519.63
2023-01-19T22:19:01.532Z,99518.78
2023-01-19T22:21:34.480Z,99513.63
2023-01-19T22:24:02.961Z,99513.63
2023-01-19T22:26:30.983Z,99524.03
2023-01-19T22:29:00.325Z,99519.72
2023-01-19T22:31:28.776Z,99518.97
2023-01-19T22:33:57.032Z,99515.50
2023-01-19T22:36:28.536Z,99520.75
2023-01-19T22:39:00.855Z,99525.91
2023-01-19T22:41:33.879Z,99520.81
2023-01-19T22:44:03.610Z,99518.19
2023-01-19T22:46:32.643Z,99521.94
2023-01-19T22:49:00.787Z,99530.66
2023-01-19T22:51:29.718Z,99527.94
2023-01-19T22:53:57.843Z,99538.28
2023-01-19T22:56:30.377Z,99522.16
2023-01-19T22:58:58.658Z,99530.31
2023-01-19T23:01:31.893Z,99534.13
2023-01-19T23:04:00.556Z,99525.72
2023-01-19T23:06:29.638Z,99527.38
2023-01-19T23:08:59.178Z,99538.81
2023-01-19T23:11:35.551Z,99515.19
2023-01-19T23:14:04.504Z,99534.38
2023-01-19T23:16:32.305Z,99530.47
2023-01-19T23:19:00.137Z,99522.84
2023-01-19T23:21:29.175Z,99525.34
2023-01-19T23:23:58.226Z,99528.59
2023-01-19T23:26:26.092Z,99520.06
2023-01-19T23:28:58.907Z,99520.81
2023-01-19T23:31:28.497Z,99523.59
2023-01-19T23:34:03.396Z,99526.38
2023-01-19T23:36:33.089Z,99530.78
2023-01-19T23:39:03.085Z,99534.91
2023-01-19T23:41:31.775Z,99530.47
2023-01-19T23:43:59.688Z,99517.03
2023-01-19T23:46:27.752Z,99521.59
2023-01-19T23:48:56.018Z,99525.53
2023-01-19T23:51:25.881Z,99519.56
2023-01-19T23:53:53.838Z,99531.38
2023-01-19T23:56:26.437Z,99528.50
2023-01-19T23:58:56.104Z,99525.59
